sensor_id;sensor_type;location;lat;lon;timestamp;P1;durP1;ratioP1;P2;durP2;ratioP2
9467;SDS011;4772;52.382;9.752;2023-10-09T00:01:17;4.17;;;1.83;;
9467;SDS011;4772;52.382;9.752;2023-10-09T00:03:46;3.67;;;1.73;;
9467;SDS011;4772;52.382;9.752;2023-10-09T00:06:19;3.57;;;1.60;;
9467;SDS011;4772;52.382;9.752;2023-10-09T00:08:55;1.63;;;1.43;;
9467;SDS011;4772;52.382;9.752;2023-10-09T00:11:23;2.80;;;1.53;;
9467;SDS011;4772;52.382;9.752;2023-10-09T00:13:54;2.83;;;1.67;;
9467;SDS011;4772;52.382;9.752;2023-10-09T00:16:24;3.67;;;1.67;;
9467;SDS011;4772;52.382;9.752;2023-10-09T00:19:11;2.40;;;1.60;;
9467;SDS011;4772;52.382;9.752;2023-10-09T00:21:55;2.53;;;1.50;;
9467;SDS011;4772;52.382;9.752;2023-10-09T00:24:23;1.90;;;1.43;;
9467;SDS011;4772;52.382;9.752;2023-10-09T00:26:53;2.67;;;1.50;;
9467;SDS011;4772;52.382;9.752;2023-10-09T00:29:36;3.23;;;1.50;;
9467;SDS011;4772;52.382;9.752;2023-10-09T00:32:09;2.83;;;1.53;;
9467;SDS011;4772;52.382;9.752;2023-10-09T00:34:41;5.40;;;1.93;;
9467;SDS011;4772;52.382;9.752;2023-10-09T00:37:10;4.93;;;1.70;;
9467;SDS011;4772;52.382;9.752;2023-10-09T00:39:41;3.50;;;1.67;;
9467;SDS011;4772;52.382;9.752;2023-10-09T00:42:13;2.43;;;1.60;;
9467;SDS011;4772;52.382;9.752;2023-10-09T00:44:50;3.03;;;2.00;;
9467;SDS011;4772;52.382;9.752;2023-10-09T00:47:16;2.53;;;1.70;;
9467;SDS011;4772;52.382;9.752;2023-10-09T00:49:47;2.10;;;1.80;;
9467;SDS011;4772;52.382;9.752;2023-10-09T00:52:14;1.60;;;1.50;;
9467;SDS011;4772;52.382;9.752;2023-10-09T00:54:43;3.27;;;1.67;;
9467;SDS011;4772;52.382;9.752;2023-10-09T00:57:15;3.53;;;1.83;;
9467;SDS011;4772;52.382;9.752;2023-10-09T00:59:43;2.63;;;1.67;;
9467;SDS011;4772;52.382;9.752;2023-10-09T01:02:11;4.37;;;1.90;;
9467;SDS011;4772;52.382;9.752;2023-10-09T01:04:37;2.73;;;1.97;;
9467;SDS011;4772;52.382;9.752;2023-10-09T01:07:08;4.10;;;1.90;;
9467;SDS011;4772;52.382;9.752;2023-10-09T01:09:40;2.13;;;1.70;;
9467;SDS011;4772;52.382;9.752;2023-10-09T01:12:09;4.50;;;1.80;;
9467;SDS011;4772;52.382;9.752;2023-10-09T01:14:45;5.03;;;2.30;;
9467;SDS011;4772;52.382;9.752;2023-10-09T01:17:20;2.90;;;1.77;;
9467;SDS011;4772;52.382;9.752;2023-10-09T01:20:00;2.60;;;1.77;;
9467;SDS011;4772;52.382;9.752;2023-10-09T01:22:29;7.30;;;2.40;;
9467;SDS011;4772;52.382;9.752;2023-10-09T01:24:55;6.00;;;2.50;;
9467;SDS011;4772;52.382;9.752;2023-10-09T01:27:21;6.00;;;2.07;;
9467;SDS011;4772;52.382;9.752;2023-10-09T01:29:50;2.37;;;1.70;;
9467;SDS011;4772;52.382;9.752;2023-10-09T01:32:16;4.03;;;2.40;;
9467;SDS011;4772;52.382;9.752;2023-10-09T01:34:44;2.10;;;1.90;;
9467;SDS011;4772;52.382;9.752;2023-10-09T01:37:14;4.40;;;2.10;;
9467;SDS011;4772;52.382;9.752;2023-10-09T01:39:47;3.80;;;2.13;;
9467;SDS011;4772;52.382;9.752;2023-10-09T01:42:14;4.63;;;2.13;;
9467;SDS011;4772;52.382;9.752;2023-10-09T01:45:00;4.33;;;2.33;;
9467;SDS011;4772;52.382;9.752;2023-10-09T01:47:46;6.23;;;2.30;;
9467;SDS011;4772;52.382;9.752;2023-10-09T01:50:21;4.73;;;2.37;;
9467;SDS011;4772;52.382;9.752;2023-10-09T01:52:56;4.57;;;2.10;;
9467;SDS011;4772;52.382;9.752;2023-10-09T01:55:21;3.53;;;2.20;;
9467;SDS011;4772;52.382;9.752;2023-10-09T01:58:08;4.60;;;2.53;;
9467;SDS011;4772;52.382;9.752;2023-10-09T02:00:49;4.63;;;2.10;;
9467;SDS011;4772;52.382;9.752;2023-10-09T02:03:19;4.30;;;2.27;;
9467;SDS011;4772;52.382;9.752;2023-10-09T02:05:50;3.37;;;1.90;;
9467;SDS011;4772;52.382;9.752;2023-10-09T02:08:18;6.63;;;2.67;;
9467;SDS011;4772;52.382;9.752;2023-10-09T02:10:51;2.83;;;2.20;;
9467;SDS011;4772;52.382;9.752;2023-10-09T02:13:20;4.57;;;2.50;;
9467;SDS011;4772;52.382;9.752;2023-10-09T02:15:55;3.87;;;2.30;;
9467;SDS011;4772;52.382;9.752;2023-10-09T02:18:21;4.33;;;2.23;;
9467;SDS011;4772;52.382;9.752;2023-10-09T02:20:48;6.40;;;2.63;;
9467;SDS011;4772;52.382;9.752;2023-10-09T02:23:20;7.93;;;2.80;;
9467;SDS011;4772;52.382;9.752;2023-10-09T02:25:50;3.83;;;2.63;;
9467;SDS011;4772;52.382;9.752;2023-10-09T02:28:18;6.53;;;2.90;;
9467;SDS011;4772;52.382;9.752;2023-10-09T02:30:44;5.37;;;2.73;;
9467;SDS011;4772;52.382;9.752;2023-10-09T02:33:15;5.30;;;2.97;;
9467;SDS011;4772;52.382;9.752;2023-10-09T02:35:52;3.50;;;3.00;;
9467;SDS011;4772;52.382;9.752;2023-10-09T02:38:19;6.60;;;3.07;;
9467;SDS011;4772;52.382;9.752;2023-10-09T02:40:49;7.17;;;2.90;;
9467;SDS011;4772;52.382;9.752;2023-10-09T02:43:28;5.57;;;2.93;;
9467;SDS011;4772;52.382;9.752;2023-10-09T02:45:59;7.27;;;3.00;;
9467;SDS011;4772;52.382;9.752;2023-10-09T02:48:31;6.40;;;2.93;;
9467;SDS011;4772;52.382;9.752;2023-10-09T02:51:01;4.63;;;2.80;;
9467;SDS011;4772;52.382;9.752;2023-10-09T02:53:27;6.50;;;3.00;;
9467;SDS011;4772;52.382;9.752;2023-10-09T02:56:00;5.10;;;2.80;;
9467;SDS011;4772;52.382;9.752;2023-10-09T02:58:37;9.17;;;3.20;;
9467;SDS011;4772;52.382;9.752;2023-10-09T03:01:08;3.97;;;2.50;;
9467;SDS011;4772;52.382;9.752;2023-10-09T03:03:34;5.13;;;3.10;;
9467;SDS011;4772;52.382;9.752;2023-10-09T03:06:00;6.97;;;3.13;;
9467;SDS011;4772;52.382;9.752;2023-10-09T03:08:29;7.93;;;3.20;;
9467;SDS011;4772;52.382;9.752;2023-10-09T03:10:54;6.13;;;2.93;;
9467;SDS011;4772;52.382;9.752;2023-10-09T03:13:24;5.20;;;3.00;;
9467;SDS011;4772;52.382;9.752;2023-10-09T03:15:50;6.67;;;3.37;;
9467;SDS011;4772;52.382;9.752;2023-10-09T03:18:16;6.10;;;2.80;;
9467;SDS011;4772;52.382;9.752;2023-10-09T03:20:43;5.30;;;3.10;;
9467;SDS011;4772;52.382;9.752;2023-10-09T03:23:11;5.93;;;2.93;;
9467;SDS011;4772;52.382;9.752;2023-10-09T03:25:39;5.43;;;2.90;;
9467;SDS011;4772;52.382;9.752;2023-10-09T03:28:05;8.07;;;3.43;;
9467;SDS011;4772;52.382;9.752;2023-10-09T03:30:31;4.70;;;3.13;;
9467;SDS011;4772;52.382;9.752;2023-10-09T03:32:58;6.57;;;3.47;;
9467;SDS011;4772;52.382;9.752;2023-10-09T03:35:25;8.80;;;3.30;;
9467;SDS011;4772;52.382;9.752;2023-10-09T03:37:59;7.43;;;3.97;;
9467;SDS011;4772;52.382;9.752;2023-10-09T03:40:31;5.00;;;3.07;;
9467;SDS011;4772;52.382;9.752;2023-10-09T03:42:57;4.50;;;3.43;;
9467;SDS011;4772;52.382;9.752;2023-10-09T03:45:23;7.00;;;4.07;;
9467;SDS011;4772;52.382;9.752;2023-10-09T03:47:54;6.93;;;3.97;;
9467;SDS011;4772;52.382;9.752;2023-10-09T03:50:49;6.63;;;3.97;;
9467;SDS011;4772;52.382;9.752;2023-10-09T03:53:31;8.83;;;4.40;;
9467;SDS011;4772;52.382;9.752;2023-10-09T03:55:57;10.80;;;5.33;;
9467;SDS011;4772;52.382;9.752;2023-10-09T03:58:24;9.20;;;4.33;;
9467;SDS011;4772;52.382;9.752;2023-10-09T04:00:55;9.40;;;4.73;;
9467;SDS011;4772;52.382;9.752;2023-10-09T04:03:21;9.67;;;5.57;;
9467;SDS011;4772;52.382;9.752;2023-10-09T04:05:49;10.43;;;4.67;;
9467;SDS011;4772;52.382;9.752;2023-10-09T04:08:18;6.00;;;4.13;;
9467;SDS011;4772;52.382;9.752;2023-10-09T04:10:45;10.47;;;6.00;;
9467;SDS011;4772;52.382;9.752;2023-10-09T04:13:18;10.23;;;6.50;;
9467;SDS011;4772;52.382;9.752;2023-10-09T04:15:47;13.53;;;6.73;;
9467;SDS011;4772;52.382;9.752;2023-10-09T04:18:14;11.03;;;6.70;;
9467;SDS011;4772;52.382;9.752;2023-10-09T04:20:41;12.07;;;6.73;;
9467;SDS011;4772;52.382;9.752;2023-10-09T04:23:39;11.53;;;7.57;;
9467;SDS011;4772;52.382;9.752;2023-10-09T04:26:24;14.13;;;8.07;;
9467;SDS011;4772;52.382;9.752;2023-10-09T04:28:51;15.37;;;7.70;;
9467;SDS011;4772;52.382;9.752;2023-10-09T04:31:19;15.70;;;8.17;;
9467;SDS011;4772;52.382;9.752;2023-10-09T04:33:47;14.37;;;8.73;;
9467;SDS011;4772;52.382;9.752;2023-10-09T04:36:39;13.40;;;8.47;;
9467;SDS011;4772;52.382;9.752;2023-10-09T04:39:11;18.43;;;11.50;;
9467;SDS011;4772;52.382;9.752;2023-10-09T04:41:37;18.13;;;10.33;;
9467;SDS011;4772;52.382;9.752;2023-10-09T04:44:17;24.80;;;12.47;;
9467;SDS011;4772;52.382;9.752;2023-10-09T04:46:54;29.17;;;15.73;;
9467;SDS011;4772;52.382;9.752;2023-10-09T04:49:36;28.87;;;17.13;;
9467;SDS011;4772;52.382;9.752;2023-10-09T04:52:18;29.17;;;17.13;;
9467;SDS011;4772;52.382;9.752;2023-10-09T04:54:50;33.20;;;18.63;;
9467;SDS011;4772;52.382;9.752;2023-10-09T05:02:58;33.70;;;19.43;;
9467;SDS011;4772;52.382;9.752;2023-10-09T05:05:30;39.07;;;20.23;;
9467;SDS011;4772;52.382;9.752;2023-10-09T05:08:14;40.60;;;21.40;;
9467;SDS011;4772;52.382;9.752;2023-10-09T05:10:47;42.87;;;23.27;;
9467;SDS011;4772;52.382;9.752;2023-10-09T05:13:39;43.90;;;24.03;;
9467;SDS011;4772;52.382;9.752;2023-10-09T05:18:32;52.27;;;28.30;;
9467;SDS011;4772;52.382;9.752;2023-10-09T05:21:02;51.43;;;26.90;;
9467;SDS011;4772;52.382;9.752;2023-10-09T05:23:37;55.87;;;27.23;;
9467;SDS011;4772;52.382;9.752;2023-10-09T05:26:13;58.07;;;28.27;;
9467;SDS011;4772;52.382;9.752;2023-10-09T05:28:59;56.30;;;28.80;;
9467;SDS011;4772;52.382;9.752;2023-10-09T05:31:43;60.20;;;28.40;;
9467;SDS011;4772;52.382;9.752;2023-10-09T05:34:10;56.43;;;29.17;;
9467;SDS011;4772;52.382;9.752;2023-10-09T05:36:44;51.40;;;28.93;;
9467;SDS011;4772;52.382;9.752;2023-10-09T05:39:12;61.07;;;29.40;;
9467;SDS011;4772;52.382;9.752;2023-10-09T05:41:46;59.03;;;30.23;;
9467;SDS011;4772;52.382;9.752;2023-10-09T05:44:17;51.07;;;28.33;;
9467;SDS011;4772;52.382;9.752;2023-10-09T05:47:02;53.67;;;29.73;;
9467;SDS011;4772;52.382;9.752;2023-10-09T05:49:56;56.90;;;29.60;;
9467;SDS011;4772;52.382;9.752;2023-10-09T05:52:34;55.57;;;29.03;;
9467;SDS011;4772;52.382;9.752;2023-10-09T05:55:04;50.03;;;27.77;;
9467;SDS011;4772;52.382;9.752;2023-10-09T05:57:53;54.67;;;31.97;;
9467;SDS011;4772;52.382;9.752;2023-10-09T06:00:38;52.30;;;28.33;;
9467;SDS011;4772;52.382;9.752;2023-10-09T06:03:23;53.50;;;29.37;;
9467;SDS011;4772;52.382;9.752;2023-10-09T06:05:54;50.53;;;26.93;;
9467;SDS011;4772;52.382;9.752;2023-10-09T06:08:26;47.73;;;27.40;;
9467;SDS011;4772;52.382;9.752;2023-10-09T06:11:13;53.87;;;27.40;;
9467;SDS011;4772;52.382;9.752;2023-10-09T06:14:03;49.20;;;27.73;;
9467;SDS011;4772;52.382;9.752;2023-10-09T06:16:38;47.37;;;26.17;;
9467;SDS011;4772;52.382;9.752;2023-10-09T06:19:07;48.37;;;25.70;;
9467;SDS011;4772;52.382;9.752;2023-10-09T06:21:36;46.10;;;26.03;;
9467;SDS011;4772;52.382;9.752;2023-10-09T06:24:18;48.80;;;26.73;;
9467;SDS011;4772;52.382;9.752;2023-10-09T06:26:44;58.13;;;26.63;;
9467;SDS011;4772;52.382;9.752;2023-10-09T06:32:03;45.97;;;27.43;;
9467;SDS011;4772;52.382;9.752;2023-10-09T06:34:52;48.13;;;26.47;;
9467;SDS011;4772;52.382;9.752;2023-10-09T06:37:22;46.63;;;25.83;;
9467;SDS011;4772;52.382;9.752;2023-10-09T06:39:49;43.47;;;25.20;;
9467;SDS011;4772;52.382;9.752;2023-10-09T06:42:34;49.43;;;26.77;;
9467;SDS011;4772;52.382;9.752;2023-10-09T06:45:16;48.77;;;25.77;;
9467;SDS011;4772;52.382;9.752;2023-10-09T06:47:43;43.37;;;25.43;;
9467;SDS011;4772;52.382;9.752;2023-10-09T06:50:21;44.50;;;25.03;;
9467;SDS011;4772;52.382;9.752;2023-10-09T06:52:51;43.87;;;24.83;;
9467;SDS011;4772;52.382;9.752;2023-10-09T06:55:36;42.97;;;24.50;;
9467;SDS011;4772;52.382;9.752;2023-10-09T06:58:16;45.70;;;24.43;;
9467;SDS011;4772;52.382;9.752;2023-10-09T07:00:51;44.50;;;24.77;;
9467;SDS011;4772;52.382;9.752;2023-10-09T07:03:24;40.87;;;24.63;;
9467;SDS011;4772;52.382;9.752;2023-10-09T07:06:07;42.53;;;25.07;;
9467;SDS011;4772;52.382;9.752;2023-10-09T07:08:51;39.83;;;23.20;;
9467;SDS011;4772;52.382;9.752;2023-10-09T07:14:04;37.10;;;23.50;;
9467;SDS011;4772;52.382;9.752;2023-10-09T07:16:31;42.53;;;23.43;;
9467;SDS011;4772;52.382;9.752;2023-10-09T07:19:06;39.87;;;23.63;;
9467;SDS011;4772;52.382;9.752;2023-10-09T07:21:55;37.23;;;22.77;;
9467;SDS011;4772;52.382;9.752;2023-10-09T07:24:27;41.63;;;23.30;;
9467;SDS011;4772;52.382;9.752;2023-10-09T07:27:03;37.03;;;21.63;;
9467;SDS011;4772;52.382;9.752;2023-10-09T07:29:34;41.47;;;21.87;;
9467;SDS011;4772;52.382;9.752;2023-10-09T07:32:13;40.33;;;22.50;;
9467;SDS011;4772;52.382;9.752;2023-10-09T07:34:45;33.30;;;22.10;;
9467;SDS011;4772;52.382;9.752;2023-10-09T07:37:23;42.73;;;23.93;;
9467;SDS011;4772;52.382;9.752;2023-10-09T07:39:50;38.80;;;23.37;;
9467;SDS011;4772;52.382;9.752;2023-10-09T07:42:23;41.17;;;24.67;;
9467;SDS011;4772;52.382;9.752;2023-10-09T07:45:08;41.80;;;23.50;;
9467;SDS011;4772;52.382;9.752;2023-10-09T07:47:46;39.77;;;25.10;;
9467;SDS011;4772;52.382;9.752;2023-10-09T07:50:28;37.43;;;24.37;;
9467;SDS011;4772;52.382;9.752;2023-10-09T07:53:09;41.73;;;24.43;;
9467;SDS011;4772;52.382;9.752;2023-10-09T07:55:51;41.30;;;24.63;;
9467;SDS011;4772;52.382;9.752;2023-10-09T07:58:21;42.93;;;25.27;;
9467;SDS011;4772;52.382;9.752;2023-10-09T08:00:53;37.97;;;24.07;;
9467;SDS011;4772;52.382;9.752;2023-10-09T08:03:38;39.10;;;24.10;;
9467;SDS011;4772;52.382;9.752;2023-10-09T08:06:04;43.97;;;24.70;;
9467;SDS011;4772;52.382;9.752;2023-10-09T08:08:49;38.47;;;23.70;;
9467;SDS011;4772;52.382;9.752;2023-10-09T08:11:27;35.40;;;22.53;;
9467;SDS011;4772;52.382;9.752;2023-10-09T08:14:07;37.10;;;22.73;;
9467;SDS011;4772;52.382;9.752;2023-10-09T08:16:52;36.03;;;23.30;;
9467;SDS011;4772;52.382;9.752;2023-10-09T08:19:36;40.70;;;24.17;;
9467;SDS011;4772;52.382;9.752;2023-10-09T08:22:17;37.03;;;22.37;;
9467;SDS011;4772;52.382;9.752;2023-10-09T08:24:49;34.90;;;21.97;;
9467;SDS011;4772;52.382;9.752;2023-10-09T08:27:21;33.53;;;20.87;;
9467;SDS011;4772;52.382;9.752;2023-10-09T08:29:56;32.30;;;21.43;;
9467;SDS011;4772;52.382;9.752;2023-10-09T08:32:41;32.87;;;19.23;;
9467;SDS011;4772;52.382;9.752;2023-10-09T08:35:26;30.83;;;18.53;;
9467;SDS011;4772;52.382;9.752;2023-10-09T08:37:58;29.17;;;18.67;;
9467;SDS011;4772;52.382;9.752;2023-10-09T08:40:31;30.83;;;18.73;;
9467;SDS011;4772;52.382;9.752;2023-10-09T08:43:00;25.63;;;16.93;;
9467;SDS011;4772;52.382;9.752;2023-10-09T08:45:33;28.00;;;18.47;;
9467;SDS011;4772;52.382;9.752;2023-10-09T08:47:59;29.60;;;17.67;;
9467;SDS011;4772;52.382;9.752;2023-10-09T08:50:30;26.47;;;17.37;;
9467;SDS011;4772;52.382;9.752;2023-10-09T08:52:55;24.33;;;17.27;;
9467;SDS011;4772;52.382;9.752;2023-10-09T08:55:22;26.60;;;17.80;;
9467;SDS011;4772;52.382;9.752;2023-10-09T08:57:48;25.50;;;16.27;;
9467;SDS011;4772;52.382;9.752;2023-10-09T09:00:17;24.93;;;17.40;;
9467;SDS011;4772;52.382;9.752;2023-10-09T09:02:50;27.40;;;16.63;;
9467;SDS011;4772;52.382;9.752;2023-10-09T09:05:18;21.17;;;15.83;;
9467;SDS011;4772;52.382;9.752;2023-10-09T09:07:45;25.90;;;16.90;;
9467;SDS011;4772;52.382;9.752;2023-10-09T09:10:11;21.90;;;15.17;;
9467;SDS011;4772;52.382;9.752;2023-10-09T09:12:46;24.80;;;15.80;;
9467;SDS011;4772;52.382;9.752;2023-10-09T09:15:18;21.30;;;15.40;;
9467;SDS011;4772;52.382;9.752;2023-10-09T09:17:44;22.30;;;14.70;;
9467;SDS011;4772;52.382;9.752;2023-10-09T09:20:20;20.90;;;15.13;;
9467;SDS011;4772;52.382;9.752;2023-10-09T09:22:51;21.80;;;14.97;;
9467;SDS011;4772;52.382;9.752;2023-10-09T09:25:18;22.43;;;14.70;;
9467;SDS011;4772;52.382;9.752;2023-10-09T09:27:49;24.90;;;15.70;;
9467;SDS011;4772;52.382;9.752;2023-10-09T09:30:27;24.73;;;15.17;;
9467;SDS011;4772;52.382;9.752;2023-10-09T09:35:58;22.63;;;15.30;;
9467;SDS011;4772;52.382;9.752;2023-10-09T09:38:27;22.10;;;14.67;;
9467;SDS011;4772;52.382;9.752;2023-10-09T09:40:57;22.80;;;16.07;;
9467;SDS011;4772;52.382;9.752;2023-10-09T09:43:27;29.17;;;17.33;;
9467;SDS011;4772;52.382;9.752;2023-10-09T09:45:55;31.03;;;17.47;;
9467;SDS011;4772;52.382;9.752;2023-10-09T09:48:21;30.53;;;19.73;;
9467;SDS011;4772;52.382;9.752;2023-10-09T09:50:49;41.00;;;31.17;;
9467;SDS011;4772;52.382;9.752;2023-10-09T09:53:19;29.90;;;19.80;;
9467;SDS011;4772;52.382;9.752;2023-10-09T09:55:51;29.70;;;19.70;;
9467;SDS011;4772;52.382;9.752;2023-10-09T09:58:21;29.23;;;20.27;;
9467;SDS011;4772;52.382;9.752;2023-10-09T10:00:49;33.97;;;23.03;;
9467;SDS011;4772;52.382;9.752;2023-10-09T10:03:30;33.03;;;21.83;;
9467;SDS011;4772;52.382;9.752;2023-10-09T10:05:58;35.47;;;23.20;;
9467;SDS011;4772;52.382;9.752;2023-10-09T10:08:29;37.70;;;24.33;;
9467;SDS011;4772;52.382;9.752;2023-10-09T10:10:59;35.43;;;23.63;;
9467;SDS011;4772;52.382;9.752;2023-10-09T10:16:08;41.77;;;26.13;;
9467;SDS011;4772;52.382;9.752;2023-10-09T10:21:32;38.30;;;26.10;;
9467;SDS011;4772;52.382;9.752;2023-10-09T10:24:03;38.50;;;27.37;;
9467;SDS011;4772;52.382;9.752;2023-10-09T10:26:35;43.67;;;28.13;;
9467;SDS011;4772;52.382;9.752;2023-10-09T10:29:20;40.90;;;27.47;;
9467;SDS011;4772;52.382;9.752;2023-10-09T10:31:52;41.00;;;28.30;;
9467;SDS011;4772;52.382;9.752;2023-10-09T10:34:22;43.63;;;26.17;;
9467;SDS011;4772;52.382;9.752;2023-10-09T10:36:49;39.83;;;27.77;;
9467;SDS011;4772;52.382;9.752;2023-10-09T10:39:17;43.07;;;26.87;;
9467;SDS011;4772;52.382;9.752;2023-10-09T10:41:53;39.20;;;26.27;;
9467;SDS011;4772;52.382;9.752;2023-10-09T10:44:32;38.53;;;25.50;;
9467;SDS011;4772;52.382;9.752;2023-10-09T10:47:05;43.47;;;29.93;;
9467;SDS011;4772;52.382;9.752;2023-10-09T10:49:48;38.00;;;28.10;;
9467;SDS011;4772;52.382;9.752;2023-10-09T10:52:21;38.90;;;26.50;;
9467;SDS011;4772;52.382;9.752;2023-10-09T10:54:47;43.17;;;25.70;;
9467;SDS011;4772;52.382;9.752;2023-10-09T10:57:35;38.57;;;25.07;;
9467;SDS011;4772;52.382;9.752;2023-10-09T11:00:18;54.20;;;26.17;;
9467;SDS011;4772;52.382;9.752;2023-10-09T11:03:03;41.47;;;26.50;;
9467;SDS011;4772;52.382;9.752;2023-10-09T11:05:41;36.53;;;25.87;;
9467;SDS011;4772;52.382;9.752;2023-10-09T11:08:11;31.73;;;24.83;;
9467;SDS011;4772;52.382;9.752;2023-10-09T11:10:38;39.20;;;25.23;;
9467;SDS011;4772;52.382;9.752;2023-10-09T11:13:23;32.57;;;24.00;;
9467;SDS011;4772;52.382;9.752;2023-10-09T11:15:56;34.37;;;24.33;;
9467;SDS011;4772;52.382;9.752;2023-10-09T11:18:42;31.27;;;24.87;;
9467;SDS011;4772;52.382;9.752;2023-10-09T11:21:12;31.97;;;24.00;;
9467;SDS011;4772;52.382;9.752;2023-10-09T11:23:39;31.33;;;23.33;;
9467;SDS011;4772;52.382;9.752;2023-10-09T11:26:18;33.03;;;24.00;;
9467;SDS011;4772;52.382;9.752;2023-10-09T11:29:09;32.60;;;24.53;;
9467;SDS011;4772;52.382;9.752;2023-10-09T11:31:42;32.03;;;24.53;;
9467;SDS011;4772;52.382;9.752;2023-10-09T11:34:19;34.33;;;24.47;;
9467;SDS011;4772;52.382;9.752;2023-10-09T11:37:13;30.93;;;24.00;;
9467;SDS011;4772;52.382;9.752;2023-10-09T11:39:40;29.83;;;23.97;;
9467;SDS011;4772;52.382;9.752;2023-10-09T11:42:20;31.00;;;24.43;;
9467;SDS011;4772;52.382;9.752;2023-10-09T11:45:00;39.27;;;25.37;;
9467;SDS011;4772;52.382;9.752;2023-10-09T11:47:36;29.27;;;24.50;;
9467;SDS011;4772;52.382;9.752;2023-10-09T11:50:10;34.07;;;25.23;;
9467;SDS011;4772;52.382;9.752;2023-10-09T11:52:58;29.37;;;23.90;;
9467;SDS011;4772;52.382;9.752;2023-10-09T11:55:46;31.90;;;24.40;;
9467;SDS011;4772;52.382;9.752;2023-10-09T11:58:21;28.17;;;23.50;;
9467;SDS011;4772;52.382;9.752;2023-10-09T12:01:29;29.07;;;22.87;;
9467;SDS011;4772;52.382;9.752;2023-10-09T12:03:41;26.77;;;22.17;;
9467;SDS011;4772;52.382;9.752;2023-10-09T12:06:09;28.97;;;22.50;;
9467;SDS011;4772;52.382;9.752;2023-10-09T12:08:39;25.83;;;21.93;;
9467;SDS011;4772;52.382;9.752;2023-10-09T12:11:05;29.97;;;22.63;;
9467;SDS011;4772;52.382;9.752;2023-10-09T12:13:37;22.80;;;19.63;;
9467;SDS011;4772;52.382;9.752;2023-10-09T12:16:09;27.03;;;20.60;;
9467;SDS011;4772;52.382;9.752;2023-10-09T12:18:35;24.07;;;19.13;;
9467;SDS011;4772;52.382;9.752;2023-10-09T12:21:03;24.77;;;19.80;;
9467;SDS011;4772;52.382;9.752;2023-10-09T12:23:29;22.40;;;19.70;;
9467;SDS011;4772;52.382;9.752;2023-10-09T12:26:00;23.20;;;19.37;;
9467;SDS011;4772;52.382;9.752;2023-10-09T12:28:26;26.23;;;19.47;;
9467;SDS011;4772;52.382;9.752;2023-10-09T12:30:53;25.63;;;20.43;;
9467;SDS011;4772;52.382;9.752;2023-10-09T12:33:19;25.63;;;20.67;;
9467;SDS011;4772;52.382;9.752;2023-10-09T12:35:55;26.87;;;21.90;;
9467;SDS011;4772;52.382;9.752;2023-10-09T12:38:25;26.70;;;21.53;;
9467;SDS011;4772;52.382;9.752;2023-10-09T12:41:03;31.10;;;22.73;;
9467;SDS011;4772;52.382;9.752;2023-10-09T12:43:44;28.67;;;22.73;;
9467;SDS011;4772;52.382;9.752;2023-10-09T12:46:10;30.97;;;24.43;;
9467;SDS011;4772;52.382;9.752;2023-10-09T12:48:41;29.53;;;24.13;;
9467;SDS011;4772;52.382;9.752;2023-10-09T12:51:11;31.50;;;23.87;;
9467;SDS011;4772;52.382;9.752;2023-10-09T12:53:41;31.03;;;24.37;;
9467;SDS011;4772;52.382;9.752;2023-10-09T12:56:07;32.07;;;24.77;;
9467;SDS011;4772;52.382;9.752;2023-10-09T12:58:34;31.17;;;24.43;;
9467;SDS011;4772;52.382;9.752;2023-10-09T13:01:03;30.83;;;23.90;;
9467;SDS011;4772;52.382;9.752;2023-10-09T13:03:36;29.77;;;23.47;;
9467;SDS011;4772;52.382;9.752;2023-10-09T13:06:03;27.97;;;23.23;;
9467;SDS011;4772;52.382;9.752;2023-10-09T13:08:35;28.63;;;21.70;;
9467;SDS011;4772;52.382;9.752;2023-10-09T13:11:03;24.97;;;21.80;;
9467;SDS011;4772;52.382;9.752;2023-10-09T13:13:45;24.50;;;21.27;;
9467;SDS011;4772;52.382;9.752;2023-10-09T13:16:18;23.80;;;18.83;;
9467;SDS011;4772;52.382;9.752;2023-10-09T13:18:51;23.07;;;19.00;;
9467;SDS011;4772;52.382;9.752;2023-10-09T13:21:21;23.23;;;19.40;;
9467;SDS011;4772;52.382;9.752;2023-10-09T13:23:48;23.70;;;19.43;;
9467;SDS011;4772;52.382;9.752;2023-10-09T13:26:16;22.30;;;19.10;;
9467;SDS011;4772;52.382;9.752;2023-10-09T13:28:45;21.73;;;19.43;;
9467;SDS011;4772;52.382;9.752;2023-10-09T13:31:15;23.13;;;19.10;;
9467;SDS011;4772;52.382;9.752;2023-10-09T13:33:43;21.10;;;18.80;;
9467;SDS011;4772;52.382;9.752;2023-10-09T13:36:09;22.20;;;19.43;;
9467;SDS011;4772;52.382;9.752;2023-10-09T13:38:44;22.63;;;18.97;;
9467;SDS011;4772;52.382;9.752;2023-10-09T13:41:10;23.47;;;19.93;;
9467;SDS011;4772;52.382;9.752;2023-10-09T13:43:40;25.47;;;19.70;;
9467;SDS011;4772;52.382;9.752;2023-10-09T13:46:06;24.63;;;20.23;;
9467;SDS011;4772;52.382;9.752;2023-10-09T13:48:33;22.73;;;20.37;;
9467;SDS011;4772;52.382;9.752;2023-10-09T13:51:03;24.77;;;20.80;;
9467;SDS011;4772;52.382;9.752;2023-10-09T13:53:32;25.17;;;20.07;;
9467;SDS011;4772;52.382;9.752;2023-10-09T13:56:01;22.30;;;19.63;;
9467;SDS011;4772;52.382;9.752;2023-10-09T13:58:27;21.50;;;19.30;;
9467;SDS011;4772;52.382;9.752;2023-10-09T14:00:54;22.53;;;19.93;;
9467;SDS011;4772;52.382;9.752;2023-10-09T14:03:21;23.67;;;19.10;;
9467;SDS011;4772;52.382;9.752;2023-10-09T14:05:48;21.67;;;18.97;;
9467;SDS011;4772;52.382;9.752;2023-10-09T14:08:22;23.97;;;18.50;;
9467;SDS011;4772;52.382;9.752;2023-10-09T14:10:49;20.40;;;18.23;;
9467;SDS011;4772;52.382;9.752;2023-10-09T14:13:15;21.47;;;19.10;;
9467;SDS011;4772;52.382;9.752;2023-10-09T14:15:43;21.33;;;18.70;;
9467;SDS011;4772;52.382;9.752;2023-10-09T14:18:11;21.17;;;19.03;;
9467;SDS011;4772;52.382;9.752;2023-10-09T14:20:37;23.17;;;18.67;;
9467;SDS011;4772;52.382;9.752;2023-10-09T14:23:06;22.20;;;17.60;;
9467;SDS011;4772;52.382;9.752;2023-10-09T14:25:35;18.73;;;16.73;;
9467;SDS011;4772;52.382;9.752;2023-10-09T14:28:05;17.80;;;16.00;;
9467;SDS011;4772;52.382;9.752;2023-10-09T14:30:37;19.47;;;16.50;;
9467;SDS011;4772;52.382;9.752;2023-10-09T14:33:13;19.60;;;16.93;;
9467;SDS011;4772;52.382;9.752;2023-10-09T14:35:40;18.23;;;16.40;;
9467;SDS011;4772;52.382;9.752;2023-10-09T14:38:07;18.87;;;15.20;;
9467;SDS011;4772;52.382;9.752;2023-10-09T14:40:40;17.37;;;15.03;;
9467;SDS011;4772;52.382;9.752;2023-10-09T14:43:07;16.73;;;14.70;;
9467;SDS011;4772;52.382;9.752;2023-10-09T14:45:36;18.97;;;15.90;;
9467;SDS011;4772;52.382;9.752;2023-10-09T14:48:02;21.00;;;15.77;;
9467;SDS011;4772;52.382;9.752;2023-10-09T14:50:28;18.43;;;16.23;;
9467;SDS011;4772;52.382;9.752;2023-10-09T14:52:54;16.50;;;14.73;;
9467;SDS011;4772;52.382;9.752;2023-10-09T14:55:20;17.80;;;15.93;;
9467;SDS011;4772;52.382;9.752;2023-10-09T14:57:53;19.27;;;16.00;;
9467;SDS011;4772;52.382;9.752;2023-10-09T15:00:20;18.23;;;16.00;;
9467;SDS011;4772;52.382;9.752;2023-10-09T15:02:49;18.93;;;15.57;;
9467;SDS011;4772;52.382;9.752;2023-10-09T15:05:16;17.70;;;15.90;;
9467;SDS011;4772;52.382;9.752;2023-10-09T15:07:42;19.30;;;16.77;;
9467;SDS011;4772;52.382;9.752;2023-10-09T15:10:08;19.37;;;16.97;;
9467;SDS011;4772;52.382;9.752;2023-10-09T15:12:34;17.83;;;16.03;;
9467;SDS011;4772;52.382;9.752;2023-10-09T15:15:05;20.77;;;17.40;;
9467;SDS011;4772;52.382;9.752;2023-10-09T15:17:41;18.90;;;16.87;;
9467;SDS011;4772;52.382;9.752;2023-10-09T15:20:12;18.50;;;16.43;;
9467;SDS011;4772;52.382;9.752;2023-10-09T15:22:39;19.37;;;17.33;;
9467;SDS011;4772;52.382;9.752;2023-10-09T15:25:06;18.87;;;16.87;;
9467;SDS011;4772;52.382;9.752;2023-10-09T15:27:32;20.10;;;16.17;;
9467;SDS011;4772;52.382;9.752;2023-10-09T15:29:58;17.83;;;15.00;;
9467;SDS011;4772;52.382;9.752;2023-10-09T15:32:24;16.40;;;14.23;;
9467;SDS011;4772;52.382;9.752;2023-10-09T15:34:56;16.80;;;14.67;;
9467;SDS011;4772;52.382;9.752;2023-10-09T15:37:22;16.53;;;14.63;;
9467;SDS011;4772;52.382;9.752;2023-10-09T15:39:48;17.37;;;14.23;;
9467;SDS011;4772;52.382;9.752;2023-10-09T15:42:15;16.43;;;13.87;;
9467;SDS011;4772;52.382;9.752;2023-10-09T15:44:41;17.70;;;13.23;;
9467;SDS011;4772;52.382;9.752;2023-10-09T15:47:07;13.97;;;12.50;;
9467;SDS011;4772;52.382;9.752;2023-10-09T15:49:33;15.70;;;11.87;;